createdAt,value
2023-01-19T00:01:00.179Z,2.69
2023-01-19T00:03:27.640Z,2.78
2023-01-19T00:05:54.972Z,2.78
2023-01-19T00:08:22.135Z,2.76
2023-01-19T00:10:53.471Z,2.71
2023-01-19T00:13:20.851Z,2.66
2023-01-19T00:15:48.193Z,2.64
2023-01-19T00:18:15.562Z,2.64
2023-01-19T00:20:43.726Z,2.64
2023-01-19T00:23:11.223Z,2.65
2023-01-19T00:25:42.768Z,2.67
2023-01-19T00:28:13.864Z,2.70
2023-01-19T00:30:42.146Z,2.70
2023-01-19T00:33:09.956Z,2.70
2023-01-19T00:35:36.866Z,2.78
2023-01-19T00:38:03.828Z,2.86
2023-01-19T00:40:31.063Z,2.87
2023-01-19T00:42:58.978Z,2.84
2023-01-19T00:45:26.563Z,2.86
2023-01-19T00:47:57.441Z,2.87
2023-01-19T00:50:26.909Z,2.88
2023-01-19T00:52:55.507Z,2.93
2023-01-19T00:55:23.608Z,2.94
2023-01-19T00:57:51.608Z,3.11
2023-01-19T01:00:20.206Z,3.19
2023-01-19T01:02:48.317Z,3.18
2023-01-19T01:05:16.591Z,3.27
2023-01-19T01:07:47.280Z,3.53
2023-01-19T01:10:26.435Z,3.50
2023-01-19T01:12:57.416Z,3.61
2023-01-19T01:15:26.883Z,3.56
2023-01-19T01:17:55.044Z,3.44
2023-01-19T01:20:28.212Z,3.28
2023-01-19T01:22:56.891Z,3.17
2023-01-19T01:25:25.982Z,3.09
2023-01-19T01:27:53.769Z,3.06
2023-01-19T01:30:21.854Z,3.03
2023-01-19T01:32:49.344Z,3.01
2023-01-19T01:35:16.843Z,2.96
2023-01-19T01:37:43.823Z,2.88
2023-01-19T01:40:15.288Z,2.86
2023-01-19T01:42:42.720Z,3.06
2023-01-19T01:45:35.608Z,2.88
2023-01-19T01:48:22.639Z,2.86
2023-01-19T01:51:19.905Z,2.83
2023-01-19T01:53:51.517Z,2.88
2023-01-19T01:56:24.045Z,2.91
2023-01-19T01:58:51.743Z,3.00
2023-01-19T02:01:37.677Z,3.11
2023-01-19T02:04:05.156Z,3.05
2023-01-19T02:06:32.521Z,2.96
2023-01-19T02:09:23.800Z,2.91
2023-01-19T02:12:10.168Z,2.74
2023-01-19T02:14:37.471Z,2.58
2023-01-19T02:17:05.097Z,2.49
2023-01-19T02:19:46.558Z,2.42
2023-01-19T02:22:28.803Z,2.43
2023-01-19T02:24:55.660Z,2.42
2023-01-19T02:27:22.625Z,2.42
2023-01-19T02:29:49.592Z,2.43
2023-01-19T02:32:16.436Z,2.51
2023-01-19T02:34:43.269Z,2.45
2023-01-19T02:37:15.066Z,2.35
2023-01-19T02:39:45.635Z,2.33
2023-01-19T02:42:18.704Z,2.31
2023-01-19T02:44:47.643Z,2.37
2023-01-19T02:47:14.957Z,2.44
2023-01-19T02:49:41.933Z,2.26
2023-01-19T02:52:16.026Z,2.25
2023-01-19T02:54:50.246Z,2.30
2023-01-19T02:57:32.295Z,2.39
2023-01-19T03:00:21.445Z,2.33
2023-01-19T03:03:23.748Z,2.36
2023-01-19T03:06:25.993Z,2.53
2023-01-19T03:08:52.712Z,2.51
2023-01-19T03:11:19.699Z,2.45
2023-01-19T03:14:03.118Z,2.41
2023-01-19T03:16:48.679Z,2.57
2023-01-19T03:19:24.238Z,2.18
2023-01-19T03:21:56.608Z,2.22
2023-01-19T03:24:24.607Z,2.34
2023-01-19T03:26:58.906Z,2.27
2023-01-19T03:29:28.852Z,2.36
2023-01-19T03:31:58.257Z,2.36
2023-01-19T03:34:26.134Z,2.33
2023-01-19T03:36:55.431Z,2.68
2023-01-19T03:39:24.273Z,2.39
2023-01-19T03:41:55.312Z,2.41
2023-01-19T03:44:24.034Z,2.25
2023-01-19T03:46:51.481Z,2.64
2023-01-19T03:49:19.111Z,2.94
2023-01-19T03:51:46.320Z,2.63
2023-01-19T03:54:13.076Z,2.39
2023-01-19T03:56:40.555Z,2.68
2023-01-19T03:59:07.909Z,2.43
2023-01-19T04:01:35.457Z,2.46
2023-01-19T04:04:02.518Z,2.60
2023-01-19T04:06:29.717Z,2.74
2023-01-19T04:08:56.955Z,2.74
2023-01-19T04:11:24.301Z,2.86
2023-01-19T04:13:52.041Z,3.01
2023-01-19T04:16:21.402Z,3.05
2023-01-19T04:18:48.899Z,3.17
2023-01-19T04:21:17.125Z,3.34
2023-01-19T04:23:47.382Z,3.46
2023-01-19T04:26:14.834Z,3.08
2023-01-19T04:28:42.145Z,3.01
2023-01-19T04:31:09.825Z,2.99
2023-01-19T04:33:37.250Z,2.93
2023-01-19T04:36:04.927Z,2.86
2023-01-19T04:38:32.057Z,2.89
2023-01-19T04:40:59.509Z,3.07
2023-01-19T04:43:26.597Z,3.06
2023-01-19T04:45:53.984Z,3.09
2023-01-19T04:48:21.171Z,3.16
2023-01-19T04:50:48.324Z,3.05
2023-01-19T04:53:16.725Z,2.99
2023-01-19T04:55:44.187Z,2.93
2023-01-19T04:58:11.316Z,2.96
2023-01-19T05:00:38.865Z,3.27
2023-01-19T05:03:06.409Z,3.44
2023-01-19T05:05:34.508Z,3.26
2023-01-19T05:08:01.677Z,3.27
2023-01-19T05:10:29.395Z,3.32
2023-01-19T05:12:56.637Z,3.26
2023-01-19T05:15:23.917Z,3.10
2023-01-19T05:17:51.115Z,3.09
2023-01-19T05:20:19.097Z,3.07
2023-01-19T05:22:50.954Z,3.17
2023-01-19T05:25:18.912Z,3.03
2023-01-19T05:27:46.144Z,2.98
2023-01-19T05:30:14.566Z,2.99
2023-01-19T05:32:41.979Z,3.11
2023-01-19T05:35:10.149Z,3.05
2023-01-19T05:37:37.553Z,3.25
2023-01-19T05:40:05.655Z,3.13
2023-01-19T05:42:33.106Z,2.97
2023-01-19T05:45:00.916Z,2.85
2023-01-19T05:47:31.184Z,2.74
2023-01-19T05:49:58.917Z,2.69
2023-01-19T05:52:26.567Z,2.83
2023-01-19T05:54:55.327Z,2.77
2023-01-19T05:57:22.932Z,2.77
2023-01-19T05:59:50.910Z,2.69
2023-01-19T06:02:18.326Z,2.65
2023-01-19T06:04:45.495Z,2.48
2023-01-19T06:07:12.897Z,2.42
2023-01-19T06:09:40.397Z,2.31
2023-01-19T06:12:07.818Z,2.39
2023-01-19T06:14:37.295Z,2.31
2023-01-19T06:17:06.332Z,2.28
2023-01-19T06:19:35.055Z,2.32
2023-01-19T06:22:03.139Z,2.54
2023-01-19T06:24:30.664Z,2.35
2023-01-19T06:26:57.956Z,2.50
2023-01-19T06:29:27.042Z,2.38
2023-01-19T06:31:55.550Z,2.37
2023-01-19T06:34:23.456Z,2.37
2023-01-19T06:36:51.640Z,2.46
2023-01-19T06:39:18.320Z,2.41
2023-01-19T06:41:45.608Z,2.58
2023-01-19T06:44:12.605Z,2.70
2023-01-19T06:46:40.235Z,2.79
2023-01-19T06:49:07.846Z,2.76
2023-01-19T06:51:35.322Z,2.71
2023-01-19T06:54:02.974Z,2.59
2023-01-19T06:56:30.344Z,2.57
2023-01-19T06:58:57.230Z,2.65
2023-01-19T07:01:24.170Z,2.67
2023-01-19T07:03:51.893Z,2.73
2023-01-19T07:06:19.426Z,2.62
2023-01-19T07:08:46.776Z,2.78
2023-01-19T07:11:24.688Z,2.78
2023-01-19T07:13:57.237Z,2.79
2023-01-19T07:16:24.744Z,2.67
2023-01-19T07:18:52.072Z,2.62
2023-01-19T07:21:19.704Z,2.46
2023-01-19T07:23:51.320Z,2.35
2023-01-19T07:26:21.581Z,2.31
2023-01-19T07:28:49.345Z,2.24
2023-01-19T07:31:17.220Z,2.24
2023-01-19T07:33:45.344Z,2.18
2023-01-19T07:36:12.920Z,2.38
2023-01-19T07:38:40.298Z,2.24
2023-01-19T07:41:10.065Z,2.06
2023-01-19T07:43:37.097Z,2.18
2023-01-19T07:46:05.902Z,2.16
2023-01-19T07:48:33.200Z,2.08
2023-01-19T07:51:04.621Z,2.06
2023-01-19T07:53:32.625Z,2.07
2023-01-19T07:55:59.708Z,2.04
2023-01-19T07:58:27.111Z,2.25
2023-01-19T08:00:54.418Z,2.27
2023-01-19T08:03:21.822Z,2.86
2023-01-19T08:05:52.929Z,2.77
2023-01-19T08:08:20.517Z,2.94
2023-01-19T08:10:50.755Z,2.82
2023-01-19T08:13:18.877Z,2.77
2023-01-19T08:15:49.042Z,2.80
2023-01-19T08:18:16.312Z,2.88
2023-01-19T08:20:43.667Z,2.87
2023-01-19T08:23:11.270Z,2.95
2023-01-19T08:25:44.636Z,3.15
2023-01-19T08:28:14.540Z,3.01
2023-01-19T08:30:43.893Z,3.07
2023-01-19T08:33:14.416Z,2.98
2023-01-19T08:35:43.615Z,2.92
2023-01-19T08:38:11.406Z,2.78
2023-01-19T08:40:41.159Z,2.69
2023-01-19T08:43:16.739Z,2.71
2023-01-19T08:45:48.920Z,2.63
2023-01-19T08:48:18.344Z,2.48
2023-01-19T08:50:48.407Z,2.50
2023-01-19T08:53:15.989Z,2.60
2023-01-19T08:55:44.650Z,2.59
2023-01-19T08:58:11.900Z,2.58
2023-01-19T09:00:40.984Z,2.62
2023-01-19T09:03:11.202Z,2.65
2023-01-19T09:05:41.057Z,2.60
2023-01-19T09:08:13.342Z,2.71
2023-01-19T09:10:46.508Z,2.85
2023-01-19T09:13:14.046Z,2.98
2023-01-19T09:15:41.873Z,3.04
2023-01-19T09:18:14.838Z,3.13
2023-01-19T09:20:47.038Z,3.26
2023-01-19T09:23:17.609Z,3.24
2023-01-19T09:25:46.863Z,3.31
2023-01-19T09:28:16.181Z,3.39
2023-01-19T09:30:44.654Z,3.48
2023-01-19T09:33:14.052Z,3.61
2023-01-19T09:35:42.236Z,3.62
2023-01-19T09:38:11.318Z,3.64
2023-01-19T09:40:43.911Z,3.76
2023-01-19T09:43:23.692Z,3.76
2023-01-19T09:45:57.549Z,3.76
2023-01-19T09:48:38.241Z,3.81
2023-01-19T09:51:08.856Z,3.92
2023-01-19T09:54:05.672Z,4.01
2023-01-19T09:56:33.406Z,4.13
2023-01-19T09:59:01.800Z,4.27
2023-01-19T10:01:35.591Z,4.51
2023-01-19T10:04:24.257Z,4.73
2023-01-19T10:06:53.639Z,4.88
2023-01-19T10:09:42.233Z,5.28
2023-01-19T10:12:19.769Z,5.29
2023-01-19T10:14:54.197Z,5.35
2023-01-19T10:17:43.965Z,5.46
2023-01-19T10:20:18.606Z,5.41
2023-01-19T10:22:49.515Z,5.62
2023-01-19T10:25:20.414Z,5.53
2023-01-19T10:27:48.055Z,5.65
2023-01-19T10:30:23.495Z,5.61
2023-01-19T10:32:51.572Z,5.77
2023-01-19T10:35:24.841Z,5.67
2023-01-19T10:37:56.425Z,5.79
2023-01-19T10:40:50.246Z,5.75
2023-01-19T10:43:51.215Z,5.25
2023-01-19T10:46:18.958Z,5.05
2023-01-19T10:48:48.946Z,5.04
2023-01-19T10:51:16.603Z,5.21
2023-01-19T10:53:57.013Z,5.12
2023-01-19T10:56:28.518Z,4.81
2023-01-19T10:58:55.895Z,4.50
2023-01-19T11:01:28.666Z,4.21
2023-01-19T11:04:00.286Z,4.11
2023-01-19T11:06:30.852Z,4.08
2023-01-19T11:09:14.847Z,4.17
2023-01-19T11:11:48.029Z,4.24
2023-01-19T11:14:19.616Z,4.67
2023-01-19T11:16:49.599Z,5.41
2023-01-19T11:19:25.475Z,5.73
2023-01-19T11:21:53.411Z,5.74
2023-01-19T11:24:21.101Z,5.69
2023-01-19T11:26:58.059Z,5.22
2023-01-19T11:29:26.728Z,5.26
2023-01-19T11:31:54.982Z,5.28
2023-01-19T11:34:34.220Z,5.68
2023-01-19T11:37:04.713Z,5.81
2023-01-19T11:39:45.605Z,5.82
2023-01-19T11:42:13.315Z,6.12
2023-01-19T11:45:05.655Z,6.12
2023-01-19T11:47:44.646Z,5.94
2023-01-19T11:50:12.115Z,5.35
2023-01-19T11:52:49.038Z,5.32
2023-01-19T11:55:42.341Z,5.52
2023-01-19T11:58:15.581Z,5.52
2023-01-19T12:01:05.729Z,5.29
2023-01-19T12:03:46.220Z,5.06
2023-01-19T12:06:22.210Z,5.12
2023-01-19T12:08:57.869Z,5.17
2023-01-19T12:11:34.169Z,5.62
2023-01-19T12:14:02.699Z,5.97
2023-01-19T12:16:31.618Z,6.14
2023-01-19T12:19:02.077Z,5.93
2023-01-19T12:21:29.710Z,5.80
2023-01-19T12:24:13.833Z,5.61
2023-01-19T12:26:56.734Z,5.59
2023-01-19T12:29:27.550Z,5.91
2023-01-19T12:32:13.341Z,5.88
2023-01-19T12:34:46.956Z,5.56
2023-01-19T12:37:36.945Z,5.42
2023-01-19T12:40:28.399Z,5.43
2023-01-19T12:43:04.219Z,5.46
2023-01-19T12:45:36.934Z,5.75
2023-01-19T12:48:03.900Z,5.96
2023-01-19T12:50:40.197Z,5.96
2023-01-19T12:53:18.289Z,5.85
2023-01-19T12:55:47.660Z,5.88
2023-01-19T12:58:18.953Z,5.82
2023-01-19T13:00:48.614Z,5.82
2023-01-19T13:03:18.505Z,5.87
2023-01-19T13:05:52.765Z,5.91
2023-01-19T13:08:25.789Z,5.85
2023-01-19T13:11:11.111Z,6.23
2023-01-19T13:14:07.046Z,6.37
2023-01-19T13:16:36.616Z,6.62
2023-01-19T13:19:06.868Z,6.17
2023-01-19T13:21:41.243Z,5.66
2023-01-19T13:24:15.210Z,5.40
2023-01-19T13:26:43.491Z,5.39
2023-01-19T13:29:33.827Z,5.55
2023-01-19T13:32:06.784Z,5.38
2023-01-19T13:34:43.127Z,5.32
2023-01-19T13:37:21.987Z,5.36
2023-01-19T13:39:50.249Z,5.35
2023-01-19T13:42:25.917Z,5.28
2023-01-19T13:44:53.919Z,5.26
2023-01-19T13:47:33.788Z,5.22
2023-01-19T13:50:01.369Z,5.22
2023-01-19T13:52:29.758Z,5.24
2023-01-19T13:55:02.685Z,5.18
2023-01-19T13:57:40.105Z,5.18
2023-01-19T14:00:16.842Z,4.93
2023-01-19T14:03:18.066Z,4.87
2023-01-19T14:05:45.804Z,4.87
2023-01-19T14:08:15.458Z,4.73
2023-01-19T14:11:05.396Z,4.58
2023-01-19T14:13:35.331Z,4.41
2023-01-19T14:16:08.799Z,4.29
2023-01-19T14:18:36.724Z,4.22
2023-01-19T14:21:07.961Z,4.15
2023-01-19T14:23:52.536Z,4.29
2023-01-19T14:26:38.139Z,4.33
2023-01-19T14:29:24.023Z,4.25
2023-01-19T14:31:51.876Z,4.14
2023-01-19T14:34:39.730Z,4.07
2023-01-19T14:37:27.524Z,4.14
2023-01-19T14:40:13.503Z,4.20
2023-01-19T14:42:43.594Z,4.17
2023-01-19T14:45:25.858Z,4.30
2023-01-19T14:48:05.671Z,4.32
2023-01-19T14:50:35.832Z,4.23
2023-01-19T14:53:05.868Z,4.15
2023-01-19T14:55:49.846Z,4.10
2023-01-19T14:58:19.441Z,3.92
2023-01-19T15:00:48.454Z,3.85
2023-01-19T15:03:16.155Z,3.92
2023-01-19T15:05:45.715Z,3.76
2023-01-19T15:08:16.514Z,3.59
2023-01-19T15:10:44.682Z,3.59
2023-01-19T15:13:17.933Z,3.67
2023-01-19T15:15:45.453Z,3.64
2023-01-19T15:18:16.874Z,3.61
2023-01-19T15:20:44.163Z,3.54
2023-01-19T15:23:12.260Z,3.47
2023-01-19T15:25:39.714Z,3.65
2023-01-19T15:28:22.143Z,3.60
2023-01-19T15:30:49.651Z,3.46
2023-01-19T15:33:26.304Z,3.35
2023-01-19T15:35:54.135Z,3.12
2023-01-19T15:38:21.252Z,3.16
2023-01-19T15:40:51.426Z,3.32
2023-01-19T15:43:19.058Z,3.50
2023-01-19T15:46:01.047Z,3.32
2023-01-19T15:48:28.583Z,3.32
2023-01-19T15:50:55.883Z,3.11
2023-01-19T15:53:27.561Z,2.96
2023-01-19T15:55:57.024Z,2.74
2023-01-19T15:58:25.136Z,2.60
2023-01-19T16:00:57.587Z,2.53
2023-01-19T16:03:25.814Z,2.54
2023-01-19T16:05:53.380Z,2.50
2023-01-19T16:08:22.354Z,2.49
2023-01-19T16:10:50.063Z,2.20
2023-01-19T16:13:17.405Z,2.18
2023-01-19T16:15:44.692Z,2.13
2023-01-19T16:18:11.937Z,2.17
2023-01-19T16:20:39.313Z,2.21
2023-01-19T16:23:15.115Z,1.90
2023-01-19T16:25:42.738Z,1.82
2023-01-19T16:28:12.179Z,1.71
2023-01-19T16:30:39.424Z,1.46
2023-01-19T16:33:06.601Z,1.80
2023-01-19T16:35:37.426Z,2.04
2023-01-19T16:38:04.654Z,1.70
2023-01-19T16:40:31.742Z,1.49
2023-01-19T16:42:59.211Z,1.41
2023-01-19T16:45:26.481Z,1.17
2023-01-19T16:47:53.689Z,1.14
2023-01-19T16:50:20.953Z,1.12
2023-01-19T16:52:48.153Z,1.14
2023-01-19T16:55:15.263Z,1.18
2023-01-19T16:57:42.582Z,1.93
2023-01-19T17:00:10.734Z,1.99
2023-01-19T17:02:39.202Z,1.69
2023-01-19T17:05:07.279Z,1.57
2023-01-19T17:07:34.635Z,1.72
2023-01-19T17:10:02.192Z,1.78
2023-01-19T17:12:32.158Z,1.76
2023-01-19T17:15:01.195Z,1.65
2023-01-19T17:17:28.368Z,1.76
2023-01-19T17:19:55.599Z,1.83
2023-01-19T17:22:22.849Z,1.88
2023-01-19T17:24:50.114Z,1.81
2023-01-19T17:27:17.691Z,1.75
2023-01-19T17:29:46.852Z,1.74
2023-01-19T17:32:15.373Z,1.73
2023-01-19T17:34:42.667Z,1.97
2023-01-19T17:37:10.041Z,2.02
2023-01-19T17:39:37.388Z,2.15
2023-01-19T17:42:04.639Z,2.13
2023-01-19T17:44:31.760Z,2.06
2023-01-19T17:47:00.024Z,2.02
2023-01-19T17:49:27.275Z,1.97
2023-01-19T17:51:56.061Z,2.01
2023-01-19T17:54:23.319Z,2.00
2023-01-19T17:56:51.273Z,1.97
2023-01-19T17:59:18.471Z,1.92
2023-01-19T18:01:46.811Z,1.96
2023-01-19T18:04:14.337Z,1.99
2023-01-19T18:06:41.629Z,1.87
2023-01-19T18:09:12.149Z,1.67
2023-01-19T18:11:39.619Z,1.33
2023-01-19T18:14:07.005Z,1.01
2023-01-19T18:16:34.685Z,0.89
2023-01-19T18:19:01.919Z,0.90
2023-01-19T18:21:30.673Z,0.95
2023-01-19T18:24:02.650Z,1.04
2023-01-19T18:26:31.798Z,1.01
2023-01-19T18:28:59.075Z,1.04
2023-01-19T18:31:27.693Z,0.99
2023-01-19T18:33:55.292Z,0.93
2023-01-19T18:36:22.543Z,0.83
2023-01-19T18:38:50.318Z,0.83
2023-01-19T18:41:19.310Z,0.86
2023-01-19T18:43:47.362Z,0.80
2023-01-19T18:46:15.245Z,0.66
2023-01-19T18:48:42.570Z,0.57
2023-01-19T18:51:12.046Z,0.54
2023-01-19T18:53:40.053Z,0.45
2023-01-19T18:56:08.210Z,0.47
2023-01-19T18:58:37.892Z,0.30
2023-01-19T19:01:06.135Z,0.84
2023-01-19T19:03:33.270Z,0.99
2023-01-19T19:06:05.262Z,1.01
2023-01-19T19:08:33.942Z,0.96
2023-01-19T19:11:01.088Z,0.95
2023-01-19T19:13:28.392Z,0.95
2023-01-19T19:16:05.775Z,0.92
2023-01-19T19:18:34.839Z,0.88
2023-01-19T19:21:06.769Z,0.60
2023-01-19T19:23:34.466Z,0.30
2023-01-19T19:26:07.085Z,0.28
2023-01-19T19:28:36.558Z,0.39
2023-01-19T19:31:12.792Z,0.24
2023-01-19T19:33:41.070Z,0.26
2023-01-19T19:36:09.302Z,0.17
2023-01-19T19:38:37.247Z,0.20
2023-01-19T19:41:06.151Z,0.40
2023-01-19T19:43:34.146Z,0.45
2023-01-19T19:46:04.118Z,0.58
2023-01-19T19:48:31.780Z,0.65
2023-01-19T19:51:19.192Z,0.69
2023-01-19T19:53:49.617Z,1.07
2023-01-19T19:56:21.460Z,0.73
2023-01-19T19:58:50.290Z,0.72
2023-01-19T20:01:24.137Z,0.74
2023-01-19T20:03:53.569Z,0.73
2023-01-19T20:06:23.112Z,0.73
2023-01-19T20:08:52.289Z,0.66
2023-01-19T20:11:22.081Z,0.53
2023-01-19T20:13:49.531Z,0.51
2023-01-19T20:16:19.167Z,0.50
2023-01-19T20:18:50.945Z,0.58
2023-01-19T20:21:19.962Z,0.80
2023-01-19T20:23:48.306Z,0.65
2023-01-19T20:26:17.550Z,0.44
2023-01-19T20:28:45.564Z,0.31
2023-01-19T20:31:14.925Z,0.21
2023-01-19T20:33:42.909Z,0.16
2023-01-19T20:36:10.938Z,0.13
2023-01-19T20:38:39.124Z,0.09
2023-01-19T20:41:07.737Z,0.04
2023-01-19T20:43:35.564Z,-0.02
2023-01-19T20:46:03.400Z,-0.05
2023-01-19T20:48:30.792Z,-0.07
2023-01-19T20:51:02.159Z,-0.04
2023-01-19T20:53:29.854Z,0.08
2023-01-19T20:55:56.907Z,0.11
2023-01-19T20:58:24.474Z,0.21
2023-01-19T21:00:52.547Z,0.29
2023-01-19T21:03:19.890Z,0.30
2023-01-19T21:05:48.617Z,0.33
2023-01-19T21:08:17.617Z,0.35
2023-01-19T21:10:46.398Z,0.44
2023-01-19T21:13:13.794Z,0.44
2023-01-19T21:15:40.844Z,0.49
2023-01-19T21:18:07.837Z,0.50
2023-01-19T21:20:35.279Z,0.50
2023-01-19T21:23:02.478Z,0.63
2023-01-19T21:25:29.839Z,0.58
2023-01-19T21:27:57.013Z,0.61
2023-01-19T21:30:24.375Z,0.63
2023-01-19T21:32:51.367Z,0.64
2023-01-19T21:35:18.952Z,0.66
2023-01-19T21:37:47.472Z,0.59
2023-01-19T21:40:15.186Z,0.49
2023-01-19T21:42:42.610Z,0.38
2023-01-19T21:45:10.197Z,0.30
2023-01-19T21:47:37.477Z,0.18
2023-01-19T21:50:05.661Z,0.12
2023-01-19T21:52:32.946Z,-0.04
2023-01-19T21:55:00.437Z,-0.12
2023-01-19T21:57:27.578Z,-0.19
2023-01-19T21:59:54.659Z,-0.27
2023-01-19T22:02:37.717Z,-0.31
2023-01-19T22:05:06.887Z,-0.33
2023-01-19T22:07:34.173Z,-0.35
2023-01-19T22:10:01.708Z,-0.43
2023-01-19T22:12:29.259Z,-0.44
2023-01-19T22:14:56.169Z,-0.47
2023-01-19T22:17:23.219Z,-0.46
2023-01-19T22:19:50.090Z,-0.43
2023-01-19T22:22:17.407Z,-0.40
2023-01-19T22:24:46.799Z,-0.25
2023-01-19T22:27:13.801Z,-0.18
2023-01-19T22:29:41.368Z,-0.08
2023-01-19T22:32:08.762Z,-0.06
2023-01-19T22:34:35.896Z,-0.07
2023-01-19T22:37:03.144Z,-0.09
2023-01-19T22:39:30.419Z,-0.14
2023-01-19T22:41:57.768Z,-0.07
2023-01-19T22:44:25.018Z,-0.15
2023-01-19T22:46:55.165Z,-0.14
2023-01-19T22:49:22.698Z,-0.16
2023-01-19T22:51:50.097Z,-0.13
2023-01-19T22:54:17.658Z,-0.10
2023-01-19T22:56:46.047Z,-0.05
2023-01-19T22:59:13.509Z,0.06
2023-01-19T23:01:42.835Z,0.15
2023-01-19T23:04:14.959Z,0.20
2023-01-19T23:06:42.828Z,0.24
2023-01-19T23:09:14.699Z,0.34
2023-01-19T23:11:50.288Z,0.34
2023-01-19T23:14:20.176Z,0.36
2023-01-19T23:16:48.057Z,0.38
2023-01-19T23:19:17.258Z,0.40
2023-01-19T23:21:45.251Z,0.52
2023-01-19T23:24:12.528Z,0.44
2023-01-19T23:26:39.863Z,0.37
2023-01-19T23:29:12.121Z,0.40
2023-01-19T23:31:42.252Z,0.44
2023-01-19T23:34:10.858Z,0.44
2023-01-19T23:36:38.907Z,0.43
2023-01-19T23:39:11.433Z,0.45
2023-01-19T23:41:38.365Z,0.42
2023-01-19T23:44:05.293Z,0.43
2023-01-19T23:46:32.284Z,0.39
2023-01-19T23:48:59.284Z,0.32
2023-01-19T23:51:28.558Z,0.24
2023-01-19T23:53:56.459Z,0.19
2023-01-19T23:56:26.017Z,0.17
2023-01-19T23:58:58.310Z,0.15
